sensor_id;sensor_type;location;lat;lon;timestamp;P1;durP1;ratioP1;P2;durP2;ratioP2
50681;SDS011;36779;52.168;20.878;2023-02-17T00:01:49;78.60;;;27.40;;
50681;SDS011;36779;52.168;20.878;2023-02-17T00:04:20;79.20;;;26.90;;
50681;SDS011;36779;52.168;20.878;2023-02-17T00:06:49;86.10;;;27.60;;
50681;SDS011;36779;52.168;20.878;2023-02-17T00:09:18;83.80;;;28.70;;
50681;SDS011;36779;52.168;20.878;2023-02-17T00:11:47;72.60;;;25.50;;
50681;SDS011;36779;52.168;20.878;2023-02-17T00:14:19;78.50;;;26.90;;
50681;SDS011;36779;52.168;20.878;2023-02-17T00:16:48;82.40;;;27.60;;
50681;SDS011;36779;52.168;20.878;2023-02-17T00:19:17;77.10;;;27.40;;
50681;SDS011;36779;52.168;20.878;2023-02-17T00:21:53;82.40;;;28.40;;
50681;SDS011;36779;52.168;20.878;2023-02-17T00:24:23;82.60;;;29.40;;
50681;SDS011;36779;52.168;20.878;2023-02-17T00:26:54;88.50;;;28.70;;
50681;SDS011;36779;52.168;20.878;2023-02-17T00:29:26;76.50;;;27.20;;
50681;SDS011;36779;52.168;20.878;2023-02-17T00:31:55;67.10;;;25.70;;
50681;SDS011;36779;52.168;20.878;2023-02-17T00:34:27;75.60;;;26.90;;
50681;SDS011;36779;52.168;20.878;2023-02-17T00:36:56;83.40;;;27.80;;
50681;SDS011;36779;52.168;20.878;2023-02-17T00:39:26;85.00;;;28.80;;
50681;SDS011;36779;52.168;20.878;2023-02-17T00:41:58;80.20;;;27.20;;
50681;SDS011;36779;52.168;20.878;2023-02-17T00:44:29;88.20;;;28.20;;
50681;SDS011;36779;52.168;20.878;2023-02-17T00:46:58;78.40;;;28.30;;
50681;SDS011;36779;52.168;20.878;2023-02-17T00:49:27;74.10;;;25.10;;
50681;SDS011;36779;52.168;20.878;2023-02-17T00:51:58;84.40;;;28.10;;
50681;SDS011;36779;52.168;20.878;2023-02-17T00:54:28;85.50;;;29.50;;
50681;SDS011;36779;52.168;20.878;2023-02-17T00:56:57;76.20;;;27.30;;
50681;SDS011;36779;52.168;20.878;2023-02-17T00:59:26;79.40;;;27.80;;
50681;SDS011;36779;52.168;20.878;2023-02-17T01:01:55;71.20;;;28.30;;
50681;SDS011;36779;52.168;20.878;2023-02-17T01:04:24;78.30;;;27.60;;
50681;SDS011;36779;52.168;20.878;2023-02-17T01:06:52;74.00;;;26.20;;
50681;SDS011;36779;52.168;20.878;2023-02-17T01:09:23;69.80;;;25.70;;
50681;SDS011;36779;52.168;20.878;2023-02-17T01:11:52;76.00;;;27.40;;
50681;SDS011;36779;52.168;20.878;2023-02-17T01:14:21;86.40;;;27.30;;
50681;SDS011;36779;52.168;20.878;2023-02-17T01:16:53;77.60;;;27.70;;
50681;SDS011;36779;52.168;20.878;2023-02-17T01:19:22;84.00;;;31.00;;
50681;SDS011;36779;52.168;20.878;2023-02-17T01:21:53;80.00;;;27.90;;
50681;SDS011;36779;52.168;20.878;2023-02-17T01:24:22;77.60;;;26.30;;
50681;SDS011;36779;52.168;20.878;2023-02-17T01:26:51;77.50;;;27.30;;
50681;SDS011;36779;52.168;20.878;2023-02-17T01:29:20;85.50;;;28.20;;
50681;SDS011;36779;52.168;20.878;2023-02-17T01:31:49;80.00;;;28.40;;
50681;SDS011;36779;52.168;20.878;2023-02-17T01:34:18;82.50;;;27.00;;
50681;SDS011;36779;52.168;20.878;2023-02-17T01:36:46;82.80;;;28.50;;
50681;SDS011;36779;52.168;20.878;2023-02-17T01:39:18;75.90;;;27.20;;
50681;SDS011;36779;52.168;20.878;2023-02-17T01:41:51;71.90;;;27.30;;
50681;SDS011;36779;52.168;20.878;2023-02-17T01:44:21;78.00;;;27.20;;
50681;SDS011;36779;52.168;20.878;2023-02-17T01:46:53;77.00;;;28.30;;
50681;SDS011;36779;52.168;20.878;2023-02-17T01:49:30;75.90;;;28.00;;
50681;SDS011;36779;52.168;20.878;2023-02-17T01:52:05;92.00;;;28.60;;
50681;SDS011;36779;52.168;20.878;2023-02-17T01:54:39;75.70;;;27.90;;
50681;SDS011;36779;52.168;20.878;2023-02-17T01:57:14;85.90;;;29.70;;
50681;SDS011;36779;52.168;20.878;2023-02-17T01:59:50;73.50;;;27.80;;
50681;SDS011;36779;52.168;20.878;2023-02-17T02:02:22;89.50;;;29.50;;
50681;SDS011;36779;52.168;20.878;2023-02-17T02:04:52;80.60;;;27.50;;
50681;SDS011;36779;52.168;20.878;2023-02-17T02:07:24;76.80;;;28.50;;
50681;SDS011;36779;52.168;20.878;2023-02-17T02:09:57;80.50;;;27.30;;
50681;SDS011;36779;52.168;20.878;2023-02-17T02:12:28;74.10;;;26.00;;
50681;SDS011;36779;52.168;20.878;2023-02-17T02:15:03;82.20;;;27.10;;
50681;SDS011;36779;52.168;20.878;2023-02-17T02:17:40;85.10;;;26.90;;
50681;SDS011;36779;52.168;20.878;2023-02-17T02:20:24;76.60;;;26.30;;
50681;SDS011;36779;52.168;20.878;2023-02-17T02:23:11;84.10;;;25.80;;
50681;SDS011;36779;52.168;20.878;2023-02-17T02:26:07;84.90;;;28.30;;
50681;SDS011;36779;52.168;20.878;2023-02-17T02:28:52;79.00;;;26.50;;
50681;SDS011;36779;52.168;20.878;2023-02-17T02:31:45;75.80;;;27.70;;
50681;SDS011;36779;52.168;20.878;2023-02-17T02:34:28;74.10;;;26.20;;
50681;SDS011;36779;52.168;20.878;2023-02-17T02:37:08;76.50;;;26.20;;
50681;SDS011;36779;52.168;20.878;2023-02-17T02:39:43;78.90;;;26.70;;
50681;SDS011;36779;52.168;20.878;2023-02-17T02:42:19;76.60;;;24.80;;
50681;SDS011;36779;52.168;20.878;2023-02-17T02:44:50;68.00;;;24.60;;
50681;SDS011;36779;52.168;20.878;2023-02-17T02:47:41;78.20;;;27.40;;
50681;SDS011;36779;52.168;20.878;2023-02-17T02:50:16;71.40;;;26.30;;
50681;SDS011;36779;52.168;20.878;2023-02-17T02:55:52;70.70;;;26.50;;
50681;SDS011;36779;52.168;20.878;2023-02-17T02:58:30;79.50;;;25.90;;
50681;SDS011;36779;52.168;20.878;2023-02-17T03:01:07;71.00;;;25.00;;
50681;SDS011;36779;52.168;20.878;2023-02-17T03:03:44;77.50;;;28.10;;
50681;SDS011;36779;52.168;20.878;2023-02-17T03:06:25;72.10;;;25.70;;
50681;SDS011;36779;52.168;20.878;2023-02-17T03:08:59;75.20;;;25.50;;
50681;SDS011;36779;52.168;20.878;2023-02-17T03:11:33;75.30;;;24.90;;
50681;SDS011;36779;52.168;20.878;2023-02-17T03:14:03;68.70;;;26.30;;
50681;SDS011;36779;52.168;20.878;2023-02-17T03:16:39;74.30;;;25.50;;
50681;SDS011;36779;52.168;20.878;2023-02-17T03:19:09;68.40;;;26.20;;
50681;SDS011;36779;52.168;20.878;2023-02-17T03:21:46;77.80;;;28.10;;
50681;SDS011;36779;52.168;20.878;2023-02-17T03:24:19;79.20;;;26.40;;
50681;SDS011;36779;52.168;20.878;2023-02-17T03:26:49;76.20;;;26.20;;
50681;SDS011;36779;52.168;20.878;2023-02-17T03:29:21;80.00;;;28.60;;
50681;SDS011;36779;52.168;20.878;2023-02-17T03:31:50;79.60;;;26.80;;
50681;SDS011;36779;52.168;20.878;2023-02-17T03:34:21;71.90;;;27.10;;
50681;SDS011;36779;52.168;20.878;2023-02-17T03:36:50;75.40;;;28.50;;
50681;SDS011;36779;52.168;20.878;2023-02-17T03:39:18;74.60;;;26.50;;
50681;SDS011;36779;52.168;20.878;2023-02-17T03:41:49;72.60;;;26.00;;
50681;SDS011;36779;52.168;20.878;2023-02-17T03:44:18;77.20;;;27.00;;
50681;SDS011;36779;52.168;20.878;2023-02-17T03:46:50;75.30;;;25.80;;
50681;SDS011;36779;52.168;20.878;2023-02-17T03:49:22;68.90;;;25.90;;
50681;SDS011;36779;52.168;20.878;2023-02-17T03:51:51;78.30;;;26.50;;
50681;SDS011;36779;52.168;20.878;2023-02-17T03:54:20;76.10;;;26.10;;
50681;SDS011;36779;52.168;20.878;2023-02-17T03:56:49;71.60;;;26.70;;
50681;SDS011;36779;52.168;20.878;2023-02-17T03:59:20;74.50;;;25.80;;
50681;SDS011;36779;52.168;20.878;2023-02-17T04:01:49;65.90;;;25.30;;
50681;SDS011;36779;52.168;20.878;2023-02-17T04:04:18;84.40;;;27.50;;
50681;SDS011;36779;52.168;20.878;2023-02-17T04:06:50;71.30;;;25.40;;
50681;SDS011;36779;52.168;20.878;2023-02-17T04:09:19;77.00;;;25.70;;
50681;SDS011;36779;52.168;20.878;2023-02-17T04:11:49;74.00;;;27.60;;
50681;SDS011;36779;52.168;20.878;2023-02-17T04:14:20;64.20;;;25.00;;
50681;SDS011;36779;52.168;20.878;2023-02-17T04:16:53;64.70;;;24.80;;
50681;SDS011;36779;52.168;20.878;2023-02-17T04:19:23;78.20;;;25.80;;
50681;SDS011;36779;52.168;20.878;2023-02-17T04:21:52;75.00;;;27.20;;
50681;SDS011;36779;52.168;20.878;2023-02-17T04:24:21;77.00;;;26.70;;
50681;SDS011;36779;52.168;20.878;2023-02-17T04:26:51;81.60;;;29.40;;
50681;SDS011;36779;52.168;20.878;2023-02-17T04:29:24;68.00;;;25.60;;
50681;SDS011;36779;52.168;20.878;2023-02-17T04:31:54;79.90;;;26.80;;
50681;SDS011;36779;52.168;20.878;2023-02-17T04:34:23;75.50;;;27.10;;
50681;SDS011;36779;52.168;20.878;2023-02-17T04:36:52;77.10;;;27.00;;
50681;SDS011;36779;52.168;20.878;2023-02-17T04:39:24;75.40;;;27.60;;
50681;SDS011;36779;52.168;20.878;2023-02-17T04:41:54;74.70;;;28.30;;
50681;SDS011;36779;52.168;20.878;2023-02-17T04:44:24;76.40;;;27.50;;
50681;SDS011;36779;52.168;20.878;2023-02-17T04:46:57;75.20;;;27.60;;
50681;SDS011;36779;52.168;20.878;2023-02-17T04:49:34;73.90;;;25.50;;
50681;SDS011;36779;52.168;20.878;2023-02-17T04:52:04;69.30;;;26.40;;
50681;SDS011;36779;52.168;20.878;2023-02-17T04:54:33;79.50;;;27.70;;
50681;SDS011;36779;52.168;20.878;2023-02-17T04:57:04;73.40;;;26.60;;
50681;SDS011;36779;52.168;20.878;2023-02-17T04:59:36;78.00;;;27.30;;
50681;SDS011;36779;52.168;20.878;2023-02-17T05:02:07;75.80;;;26.10;;
50681;SDS011;36779;52.168;20.878;2023-02-17T05:04:37;77.70;;;27.80;;
50681;SDS011;36779;52.168;20.878;2023-02-17T05:07:11;73.40;;;28.40;;
50681;SDS011;36779;52.168;20.878;2023-02-17T05:09:41;80.70;;;27.80;;
50681;SDS011;36779;52.168;20.878;2023-02-17T05:12:14;71.50;;;27.00;;
50681;SDS011;36779;52.168;20.878;2023-02-17T05:14:43;75.40;;;28.30;;
50681;SDS011;36779;52.168;20.878;2023-02-17T05:17:16;72.30;;;26.70;;
50681;SDS011;36779;52.168;20.878;2023-02-17T05:19:45;78.80;;;29.10;;
50681;SDS011;36779;52.168;20.878;2023-02-17T05:22:19;73.00;;;28.20;;
50681;SDS011;36779;52.168;20.878;2023-02-17T05:24:50;71.60;;;27.50;;
50681;SDS011;36779;52.168;20.878;2023-02-17T05:27:19;76.50;;;26.80;;
50681;SDS011;36779;52.168;20.878;2023-02-17T05:29:50;75.90;;;27.40;;
50681;SDS011;36779;52.168;20.878;2023-02-17T05:32:20;74.00;;;26.40;;
50681;SDS011;36779;52.168;20.878;2023-02-17T05:34:55;76.90;;;27.80;;
50681;SDS011;36779;52.168;20.878;2023-02-17T05:37:24;81.40;;;28.70;;
50681;SDS011;36779;52.168;20.878;2023-02-17T05:39:56;86.40;;;29.00;;
50681;SDS011;36779;52.168;20.878;2023-02-17T05:42:33;78.90;;;28.00;;
50681;SDS011;36779;52.168;20.878;2023-02-17T05:45:02;82.00;;;29.40;;
50681;SDS011;36779;52.168;20.878;2023-02-17T05:47:32;78.60;;;27.60;;
50681;SDS011;36779;52.168;20.878;2023-02-17T05:50:03;69.10;;;26.10;;
50681;SDS011;36779;52.168;20.878;2023-02-17T05:52:33;68.00;;;25.20;;
50681;SDS011;36779;52.168;20.878;2023-02-17T05:55:07;73.00;;;25.80;;
50681;SDS011;36779;52.168;20.878;2023-02-17T05:57:57;73.30;;;26.10;;
50681;SDS011;36779;52.168;20.878;2023-02-17T06:00:26;76.00;;;25.50;;
50681;SDS011;36779;52.168;20.878;2023-02-17T06:02:58;73.90;;;27.50;;
50681;SDS011;36779;52.168;20.878;2023-02-17T06:05:28;76.30;;;27.00;;
50681;SDS011;36779;52.168;20.878;2023-02-17T06:07:56;74.20;;;27.10;;
50681;SDS011;36779;52.168;20.878;2023-02-17T06:10:25;78.60;;;27.60;;
50681;SDS011;36779;52.168;20.878;2023-02-17T06:12:58;70.40;;;25.90;;
50681;SDS011;36779;52.168;20.878;2023-02-17T06:15:27;73.90;;;27.10;;
50681;SDS011;36779;52.168;20.878;2023-02-17T06:17:57;72.20;;;28.70;;
50681;SDS011;36779;52.168;20.878;2023-02-17T06:20:26;75.80;;;28.70;;
50681;SDS011;36779;52.168;20.878;2023-02-17T06:22:58;71.80;;;28.50;;
50681;SDS011;36779;52.168;20.878;2023-02-17T06:25:30;72.50;;;27.40;;
50681;SDS011;36779;52.168;20.878;2023-02-17T06:27:59;70.10;;;25.40;;
50681;SDS011;36779;52.168;20.878;2023-02-17T06:30:28;67.90;;;25.70;;
50681;SDS011;36779;52.168;20.878;2023-02-17T06:32:57;83.50;;;28.00;;
50681;SDS011;36779;52.168;20.878;2023-02-17T06:35:26;77.70;;;28.20;;
50681;SDS011;36779;52.168;20.878;2023-02-17T06:37:55;76.20;;;26.80;;
50681;SDS011;36779;52.168;20.878;2023-02-17T06:40:25;74.60;;;26.70;;
50681;SDS011;36779;52.168;20.878;2023-02-17T06:42:58;66.70;;;24.90;;
50681;SDS011;36779;52.168;20.878;2023-02-17T06:45:27;71.10;;;26.60;;
50681;SDS011;36779;52.168;20.878;2023-02-17T06:47:55;76.40;;;26.20;;
50681;SDS011;36779;52.168;20.878;2023-02-17T06:50:24;73.00;;;26.90;;
50681;SDS011;36779;52.168;20.878;2023-02-17T06:52:53;76.60;;;25.90;;
50681;SDS011;36779;52.168;20.878;2023-02-17T06:55:23;76.90;;;25.20;;
50681;SDS011;36779;52.168;20.878;2023-02-17T06:57:52;70.50;;;27.00;;
50681;SDS011;36779;52.168;20.878;2023-02-17T07:00:21;77.00;;;26.60;;
50681;SDS011;36779;52.168;20.878;2023-02-17T07:02:50;70.70;;;26.10;;
50681;SDS011;36779;52.168;20.878;2023-02-17T07:05:19;74.40;;;26.50;;
50681;SDS011;36779;52.168;20.878;2023-02-17T07:07:49;82.80;;;26.20;;
50681;SDS011;36779;52.168;20.878;2023-02-17T07:10:23;65.50;;;23.60;;
50681;SDS011;36779;52.168;20.878;2023-02-17T07:12:52;67.40;;;24.70;;
50681;SDS011;36779;52.168;20.878;2023-02-17T07:15:23;71.70;;;25.60;;
50681;SDS011;36779;52.168;20.878;2023-02-17T07:17:55;64.90;;;24.20;;
50681;SDS011;36779;52.168;20.878;2023-02-17T07:20:26;61.70;;;23.60;;
50681;SDS011;36779;52.168;20.878;2023-02-17T07:22:54;76.10;;;28.60;;
50681;SDS011;36779;52.168;20.878;2023-02-17T07:25:23;74.10;;;27.00;;
50681;SDS011;36779;52.168;20.878;2023-02-17T07:27:52;70.00;;;25.50;;
50681;SDS011;36779;52.168;20.878;2023-02-17T07:30:23;82.90;;;29.30;;
50681;SDS011;36779;52.168;20.878;2023-02-17T07:32:52;85.10;;;33.80;;
50681;SDS011;36779;52.168;20.878;2023-02-17T07:35:21;72.30;;;28.50;;
50681;SDS011;36779;52.168;20.878;2023-02-17T07:37:50;73.00;;;30.60;;
50681;SDS011;36779;52.168;20.878;2023-02-17T07:40:21;94.30;;;38.80;;
50681;SDS011;36779;52.168;20.878;2023-02-17T07:42:50;105.80;;;45.90;;
50681;SDS011;36779;52.168;20.878;2023-02-17T07:45:19;64.30;;;24.20;;
50681;SDS011;36779;52.168;20.878;2023-02-17T07:47:49;72.50;;;25.90;;
50681;SDS011;36779;52.168;20.878;2023-02-17T07:50:19;59.80;;;22.70;;
50681;SDS011;36779;52.168;20.878;2023-02-17T07:52:51;58.90;;;24.10;;
50681;SDS011;36779;52.168;20.878;2023-02-17T07:55:20;70.50;;;25.70;;
50681;SDS011;36779;52.168;20.878;2023-02-17T07:57:50;67.20;;;24.50;;
50681;SDS011;36779;52.168;20.878;2023-02-17T08:00:19;60.60;;;24.50;;
50681;SDS011;36779;52.168;20.878;2023-02-17T08:02:49;55.60;;;24.10;;
50681;SDS011;36779;52.168;20.878;2023-02-17T08:05:18;61.10;;;23.30;;
50681;SDS011;36779;52.168;20.878;2023-02-17T08:07:47;61.10;;;23.20;;
50681;SDS011;36779;52.168;20.878;2023-02-17T08:10:38;63.10;;;23.60;;
50681;SDS011;36779;52.168;20.878;2023-02-17T08:13:26;60.60;;;22.90;;
50681;SDS011;36779;52.168;20.878;2023-02-17T08:15:55;58.60;;;23.30;;
50681;SDS011;36779;52.168;20.878;2023-02-17T08:18:25;62.60;;;26.00;;
50681;SDS011;36779;52.168;20.878;2023-02-17T08:20:57;62.00;;;24.10;;
50681;SDS011;36779;52.168;20.878;2023-02-17T08:23:26;61.50;;;23.90;;
50681;SDS011;36779;52.168;20.878;2023-02-17T08:25:56;62.00;;;22.60;;
50681;SDS011;36779;52.168;20.878;2023-02-17T08:28:27;57.00;;;21.70;;
50681;SDS011;36779;52.168;20.878;2023-02-17T08:30:56;51.90;;;22.00;;
50681;SDS011;36779;52.168;20.878;2023-02-17T08:33:25;58.50;;;21.60;;
50681;SDS011;36779;52.168;20.878;2023-02-17T08:35:53;52.60;;;20.90;;
50681;SDS011;36779;52.168;20.878;2023-02-17T08:38:24;57.60;;;22.90;;
50681;SDS011;36779;52.168;20.878;2023-02-17T08:40:55;62.20;;;22.00;;
50681;SDS011;36779;52.168;20.878;2023-02-17T08:43:24;54.80;;;20.80;;
50681;SDS011;36779;52.168;20.878;2023-02-17T08:45:53;64.70;;;23.10;;
50681;SDS011;36779;52.168;20.878;2023-02-17T08:48:22;57.90;;;22.20;;
50681;SDS011;36779;52.168;20.878;2023-02-17T08:50:53;61.70;;;23.60;;
50681;SDS011;36779;52.168;20.878;2023-02-17T08:53:22;60.10;;;22.00;;
50681;SDS011;36779;52.168;20.878;2023-02-17T08:55:53;59.90;;;22.30;;
50681;SDS011;36779;52.168;20.878;2023-02-17T08:58:26;51.00;;;20.50;;
50681;SDS011;36779;52.168;20.878;2023-02-17T09:00:54;54.90;;;22.40;;
50681;SDS011;36779;52.168;20.878;2023-02-17T09:03:23;50.70;;;20.40;;
50681;SDS011;36779;52.168;20.878;2023-02-17T09:05:53;60.60;;;22.10;;
50681;SDS011;36779;52.168;20.878;2023-02-17T09:08:23;69.50;;;26.10;;
50681;SDS011;36779;52.168;20.878;2023-02-17T09:10:52;56.50;;;22.90;;
50681;SDS011;36779;52.168;20.878;2023-02-17T09:13:21;57.60;;;23.40;;
50681;SDS011;36779;52.168;20.878;2023-02-17T09:15:53;54.10;;;23.80;;
50681;SDS011;36779;52.168;20.878;2023-02-17T09:18:25;66.70;;;27.40;;
50681;SDS011;36779;52.168;20.878;2023-02-17T09:20:54;64.40;;;31.70;;
50681;SDS011;36779;52.168;20.878;2023-02-17T09:23:25;51.10;;;21.30;;
50681;SDS011;36779;52.168;20.878;2023-02-17T09:26:00;53.50;;;21.90;;
50681;SDS011;36779;52.168;20.878;2023-02-17T09:28:34;59.00;;;27.50;;
50681;SDS011;36779;52.168;20.878;2023-02-17T09:31:10;57.30;;;22.80;;
50681;SDS011;36779;52.168;20.878;2023-02-17T09:33:40;61.40;;;23.70;;
50681;SDS011;36779;52.168;20.878;2023-02-17T09:36:11;58.80;;;23.20;;
50681;SDS011;36779;52.168;20.878;2023-02-17T09:38:41;54.30;;;21.90;;
50681;SDS011;36779;52.168;20.878;2023-02-17T09:41:18;53.70;;;22.40;;
50681;SDS011;36779;52.168;20.878;2023-02-17T09:43:52;56.30;;;24.00;;
50681;SDS011;36779;52.168;20.878;2023-02-17T09:46:24;44.80;;;19.60;;
50681;SDS011;36779;52.168;20.878;2023-02-17T09:49:00;59.30;;;22.60;;
50681;SDS011;36779;52.168;20.878;2023-02-17T09:51:34;60.70;;;26.60;;
50681;SDS011;36779;52.168;20.878;2023-02-17T09:54:13;56.40;;;26.40;;
50681;SDS011;36779;52.168;20.878;2023-02-17T09:56:50;51.10;;;22.20;;
50681;SDS011;36779;52.168;20.878;2023-02-17T09:59:24;54.70;;;22.70;;
50681;SDS011;36779;52.168;20.878;2023-02-17T10:01:59;53.00;;;22.00;;
50681;SDS011;36779;52.168;20.878;2023-02-17T10:04:34;45.90;;;20.40;;
50681;SDS011;36779;52.168;20.878;2023-02-17T10:07:10;60.90;;;23.20;;
50681;SDS011;36779;52.168;20.878;2023-02-17T10:09:45;49.40;;;21.50;;
50681;SDS011;36779;52.168;20.878;2023-02-17T10:12:31;58.60;;;23.20;;
50681;SDS011;36779;52.168;20.878;2023-02-17T10:15:08;53.40;;;21.30;;
50681;SDS011;36779;52.168;20.878;2023-02-17T10:17:46;52.50;;;21.80;;
50681;SDS011;36779;52.168;20.878;2023-02-17T10:20:27;53.00;;;21.10;;
50681;SDS011;36779;52.168;20.878;2023-02-17T10:23:02;49.40;;;20.20;;
50681;SDS011;36779;52.168;20.878;2023-02-17T10:25:55;61.50;;;23.20;;
50681;SDS011;36779;52.168;20.878;2023-02-17T10:28:43;53.50;;;22.10;;
50681;SDS011;36779;52.168;20.878;2023-02-17T10:31:21;59.70;;;23.70;;
50681;SDS011;36779;52.168;20.878;2023-02-17T10:34:04;60.00;;;23.90;;
50681;SDS011;36779;52.168;20.878;2023-02-17T10:36:42;57.50;;;24.70;;
50681;SDS011;36779;52.168;20.878;2023-02-17T10:39:25;54.30;;;21.90;;
50681;SDS011;36779;52.168;20.878;2023-02-17T10:42:05;56.40;;;22.70;;
50681;SDS011;36779;52.168;20.878;2023-02-17T10:44:42;57.40;;;22.60;;
50681;SDS011;36779;52.168;20.878;2023-02-17T10:47:12;56.80;;;22.70;;
50681;SDS011;36779;52.168;20.878;2023-02-17T10:49:45;59.80;;;23.60;;
50681;SDS011;36779;52.168;20.878;2023-02-17T10:52:29;53.80;;;21.40;;
50681;SDS011;36779;52.168;20.878;2023-02-17T10:55:04;60.70;;;24.50;;
50681;SDS011;36779;52.168;20.878;2023-02-17T10:57:51;61.90;;;25.50;;
50681;SDS011;36779;52.168;20.878;2023-02-17T11:00:25;60.80;;;24.80;;
50681;SDS011;36779;52.168;20.878;2023-02-17T11:02:54;55.10;;;22.80;;
50681;SDS011;36779;52.168;20.878;2023-02-17T11:05:25;60.00;;;23.70;;
50681;SDS011;36779;52.168;20.878;2023-02-17T11:07:55;58.70;;;24.80;;
50681;SDS011;36779;52.168;20.878;2023-02-17T11:10:28;62.00;;;24.90;;
50681;SDS011;36779;52.168;20.878;2023-02-17T11:13:01;55.60;;;22.70;;
50681;SDS011;36779;52.168;20.878;2023-02-17T11:15:46;63.60;;;25.80;;
50681;SDS011;36779;52.168;20.878;2023-02-17T11:18:19;62.00;;;25.90;;
50681;SDS011;36779;52.168;20.878;2023-02-17T11:20:59;67.80;;;27.90;;
50681;SDS011;36779;52.168;20.878;2023-02-17T11:23:30;61.30;;;25.60;;
50681;SDS011;36779;52.168;20.878;2023-02-17T11:26:02;56.70;;;24.80;;
50681;SDS011;36779;52.168;20.878;2023-02-17T11:28:37;55.00;;;24.10;;
50681;SDS011;36779;52.168;20.878;2023-02-17T11:31:06;52.20;;;21.60;;
50681;SDS011;36779;52.168;20.878;2023-02-17T11:33:52;52.50;;;21.80;;
50681;SDS011;36779;52.168;20.878;2023-02-17T11:36:24;54.00;;;21.80;;
50681;SDS011;36779;52.168;20.878;2023-02-17T11:38:59;53.50;;;22.30;;
50681;SDS011;36779;52.168;20.878;2023-02-17T11:41:45;51.40;;;22.40;;
50681;SDS011;36779;52.168;20.878;2023-02-17T11:44:22;54.70;;;23.40;;
50681;SDS011;36779;52.168;20.878;2023-02-17T11:46:56;50.80;;;22.20;;
50681;SDS011;36779;52.168;20.878;2023-02-17T11:49:40;53.90;;;21.30;;
50681;SDS011;36779;52.168;20.878;2023-02-17T11:52:33;51.20;;;21.70;;
50681;SDS011;36779;52.168;20.878;2023-02-17T11:55:18;51.30;;;20.90;;
50681;SDS011;36779;52.168;20.878;2023-02-17T11:58:00;53.10;;;22.30;;
50681;SDS011;36779;52.168;20.878;2023-02-17T12:00:45;58.60;;;25.20;;
50681;SDS011;36779;52.168;20.878;2023-02-17T12:06:32;58.00;;;23.10;;
50681;SDS011;36779;52.168;20.878;2023-02-17T12:09:12;46.50;;;19.40;;
50681;SDS011;36779;52.168;20.878;2023-02-17T12:11:54;56.00;;;22.10;;
50681;SDS011;36779;52.168;20.878;2023-02-17T12:14:33;52.40;;;22.90;;
50681;SDS011;36779;52.168;20.878;2023-02-17T12:17:21;51.10;;;21.10;;
50681;SDS011;36779;52.168;20.878;2023-02-17T12:20:03;45.40;;;19.20;;
50681;SDS011;36779;52.168;20.878;2023-02-17T12:22:49;47.40;;;18.00;;
50681;SDS011;36779;52.168;20.878;2023-02-17T12:25:31;45.90;;;19.30;;
50681;SDS011;36779;52.168;20.878;2023-02-17T12:28:15;51.50;;;22.70;;
50681;SDS011;36779;52.168;20.878;2023-02-17T12:31:01;50.30;;;18.90;;
50681;SDS011;36779;52.168;20.878;2023-02-17T12:33:43;42.90;;;18.20;;
50681;SDS011;36779;52.168;20.878;2023-02-17T12:36:24;47.90;;;19.40;;
50681;SDS011;36779;52.168;20.878;2023-02-17T12:38:58;46.10;;;19.40;;
50681;SDS011;36779;52.168;20.878;2023-02-17T12:41:36;49.80;;;20.10;;
50681;SDS011;36779;52.168;20.878;2023-02-17T12:44:11;50.60;;;20.90;;
50681;SDS011;36779;52.168;20.878;2023-02-17T12:46:44;39.20;;;18.40;;
50681;SDS011;36779;52.168;20.878;2023-02-17T12:49:18;46.10;;;19.20;;
50681;SDS011;36779;52.168;20.878;2023-02-17T12:51:54;38.30;;;17.00;;
50681;SDS011;36779;52.168;20.878;2023-02-17T12:54:30;43.10;;;17.40;;
50681;SDS011;36779;52.168;20.878;2023-02-17T12:57:16;42.90;;;18.00;;
50681;SDS011;36779;52.168;20.878;2023-02-17T12:59:53;39.90;;;17.50;;
50681;SDS011;36779;52.168;20.878;2023-02-17T13:02:24;35.00;;;15.80;;
50681;SDS011;36779;52.168;20.878;2023-02-17T13:04:56;35.30;;;15.80;;
50681;SDS011;36779;52.168;20.878;2023-02-17T13:07:42;37.80;;;15.90;;
50681;SDS011;36779;52.168;20.878;2023-02-17T13:10:18;31.60;;;13.80;;
50681;SDS011;36779;52.168;20.878;2023-02-17T13:12:58;36.00;;;16.00;;
50681;SDS011;36779;52.168;20.878;2023-02-17T13:15:30;36.60;;;15.80;;
50681;SDS011;36779;52.168;20.878;2023-02-17T13:18:03;34.90;;;15.90;;
50681;SDS011;36779;52.168;20.878;2023-02-17T13:20:39;35.40;;;16.00;;
50681;SDS011;36779;52.168;20.878;2023-02-17T13:23:25;33.30;;;15.40;;
50681;SDS011;36779;52.168;20.878;2023-02-17T13:26:11;36.20;;;15.30;;
50681;SDS011;36779;52.168;20.878;2023-02-17T13:29:08;34.00;;;15.60;;
50681;SDS011;36779;52.168;20.878;2023-02-17T13:31:46;31.30;;;14.90;;
50681;SDS011;36779;52.168;20.878;2023-02-17T13:34:28;36.40;;;15.90;;
50681;SDS011;36779;52.168;20.878;2023-02-17T13:37:00;37.40;;;15.80;;
50681;SDS011;36779;52.168;20.878;2023-02-17T13:39:41;34.80;;;14.60;;
50681;SDS011;36779;52.168;20.878;2023-02-17T13:45:11;31.70;;;14.70;;
50681;SDS011;36779;52.168;20.878;2023-02-17T13:47:44;32.60;;;14.70;;
50681;SDS011;36779;52.168;20.878;2023-02-17T13:50:27;35.10;;;16.30;;
50681;SDS011;36779;52.168;20.878;2023-02-17T13:52:58;37.40;;;16.60;;
50681;SDS011;36779;52.168;20.878;2023-02-17T13:55:31;35.30;;;17.40;;
50681;SDS011;36779;52.168;20.878;2023-02-17T13:58:00;36.00;;;16.50;;
50681;SDS011;36779;52.168;20.878;2023-02-17T14:00:30;31.00;;;14.80;;
50681;SDS011;36779;52.168;20.878;2023-02-17T14:03:04;35.90;;;14.80;;
50681;SDS011;36779;52.168;20.878;2023-02-17T14:05:46;32.70;;;13.30;;
50681;SDS011;36779;52.168;20.878;2023-02-17T14:08:18;31.00;;;13.40;;
50681;SDS011;36779;52.168;20.878;2023-02-17T14:10:54;33.00;;;14.20;;
50681;SDS011;36779;52.168;20.878;2023-02-17T14:13:24;37.50;;;16.00;;
50681;SDS011;36779;52.168;20.878;2023-02-17T14:15:54;33.50;;;14.20;;
50681;SDS011;36779;52.168;20.878;2023-02-17T14:18:27;34.00;;;15.40;;
50681;SDS011;36779;52.168;20.878;2023-02-17T14:21:02;30.90;;;13.90;;
50681;SDS011;36779;52.168;20.878;2023-02-17T14:23:41;32.00;;;14.40;;
50681;SDS011;36779;52.168;20.878;2023-02-17T14:26:13;31.20;;;13.80;;
50681;SDS011;36779;52.168;20.878;2023-02-17T14:28:53;28.40;;;13.50;;
50681;SDS011;36779;52.168;20.878;2023-02-17T14:31:23;34.20;;;15.20;;
50681;SDS011;36779;52.168;20.878;2023-02-17T14:33:53;42.10;;;17.80;;
50681;SDS011;36779;52.168;20.878;2023-02-17T14:36:25;28.90;;;14.10;;
50681;SDS011;36779;52.168;20.878;2023-02-17T14:39:00;31.60;;;13.90;;
50681;SDS011;36779;52.168;20.878;2023-02-17T14:41:31;30.80;;;15.00;;
50681;SDS011;36779;52.168;20.878;2023-02-17T14:44:01;34.10;;;16.50;;
50681;SDS011;36779;52.168;20.878;2023-02-17T14:46:29;33.30;;;14.80;;
50681;SDS011;36779;52.168;20.878;2023-02-17T14:49:02;35.50;;;15.00;;
50681;SDS011;36779;52.168;20.878;2023-02-17T14:51:32;31.80;;;15.60;;
50681;SDS011;36779;52.168;20.878;2023-02-17T14:54:02;38.10;;;17.00;;